In Rescue
 
Open Full Screen Window  High Contrast Mode
Wind Gusting 00 knots
05
November 20, 2018 12:25 AM EST
Weather Information
Wind Direction
  310 °
Wind Speed
  05 kt (6 mph)
Wind Gust
  00 kt (0 mph)
Altimeter
30.06 in
Visibility
7 SM
Temperature
04° C
39° F
Dewpoint
03° C
37° F
Humidity
93%
1hr Rain Fall
00.00 in.
24hr Rain Fall
00.13 in.
Sky Condition
Overcast @ 900 ft
IFR

METAR KI69 200525Z AUTO 31005KT 7SM OVC009 04/03 A3006 RMK AO2 T00400030

FAA Disclaimer: The data displayed is for advisory purposes only and is not to be used for flight planning or operations.